createdAt,value
2018-11-26T00:00:02.142Z,18.67
2018-11-26T00:01:02.240Z,18.66
2018-11-26T00:02:02.150Z,18.66
2018-11-26T00:03:02.144Z,18.66
2018-11-26T00:04:02.279Z,18.66
2018-11-26T00:05:02.861Z,18.66
2018-11-26T00:06:02.028Z,18.66
2018-11-26T00:07:01.996Z,18.65
2018-11-26T00:08:02.071Z,18.64
2018-11-26T00:09:01.936Z,18.65
2018-11-26T00:10:02.015Z,18.64
2018-11-26T00:11:01.925Z,18.63
2018-11-26T00:12:02.028Z,18.63
2018-11-26T00:13:02.111Z,18.63
2018-11-26T00:14:02.007Z,18.62
2018-11-26T00:15:02.079Z,18.62
2018-11-26T00:16:01.903Z,18.62
2018-11-26T00:17:01.985Z,18.61
2018-11-26T00:18:01.848Z,18.61
2018-11-26T00:19:02.110Z,18.6
2018-11-26T00:20:02.214Z,18.6
2018-11-26T00:21:01.898Z,18.6
2018-11-26T00:22:02.155Z,18.6
2018-11-26T00:23:01.996Z,18.6
2018-11-26T00:24:02.038Z,18.59
2018-11-26T00:25:02.166Z,18.59
2018-11-26T00:26:02.098Z,18.58
2018-11-26T00:27:02.125Z,18.57
2018-11-26T00:28:02.405Z,18.57
2018-11-26T00:29:03.025Z,18.57
2018-11-26T00:30:02.491Z,18.57
2018-11-26T00:31:02.171Z,18.56
2018-11-26T00:32:02.033Z,18.56
2018-11-26T00:33:02.276Z,18.55
2018-11-26T00:34:02.010Z,18.55
2018-11-26T00:35:02.038Z,18.54
2018-11-26T00:36:02.160Z,18.54
2018-11-26T00:37:02.057Z,18.54
2018-11-26T00:38:02.205Z,18.54
2018-11-26T00:39:01.901Z,18.54
2018-11-26T00:40:02.628Z,18.54
2018-11-26T00:41:01.886Z,18.53
2018-11-26T00:42:02.065Z,18.53
2018-11-26T00:43:02.153Z,18.52
2018-11-26T00:44:02.394Z,18.51
2018-11-26T00:45:02.209Z,18.51
2018-11-26T00:46:02.139Z,18.51
2018-11-26T00:47:02.105Z,18.51
2018-11-26T00:48:02.011Z,18.5
2018-11-26T00:49:02.049Z,18.5
2018-11-26T00:50:02.324Z,18.51
2018-11-26T00:51:02.146Z,18.5
2018-11-26T00:52:02.699Z,18.49
2018-11-26T00:53:02.961Z,18.48
2018-11-26T00:54:02.155Z,18.49
2018-11-26T00:55:02.100Z,18.48
2018-11-26T00:56:02.167Z,18.48
2018-11-26T00:57:02.060Z,18.48
2018-11-26T00:58:02.320Z,18.47
2018-11-26T00:59:02.155Z,18.47
2018-11-26T01:00:02.269Z,18.46
2018-11-26T01:01:02.843Z,18.46
2018-11-26T01:02:02.496Z,18.46
2018-11-26T01:03:02.152Z,18.46
2018-11-26T01:04:02.072Z,18.46
2018-11-26T01:05:01.850Z,18.46
2018-11-26T01:06:02.043Z,18.46
2018-11-26T01:07:02.109Z,18.44
2018-11-26T01:08:02.280Z,18.45
2018-11-26T01:09:02.320Z,18.44
2018-11-26T01:10:02.222Z,18.44
2018-11-26T01:11:02.207Z,18.42
2018-11-26T01:12:01.895Z,18.43
2018-11-26T01:13:02.278Z,18.43
2018-11-26T01:14:01.902Z,18.43
2018-11-26T01:15:02.578Z,18.42
2018-11-26T01:16:01.853Z,18.42
2018-11-26T01:17:02.297Z,18.41
2018-11-26T01:18:02.319Z,18.41
2018-11-26T01:19:02.837Z,18.41
2018-11-26T01:20:02.141Z,18.41
2018-11-26T01:21:02.007Z,18.41
2018-11-26T01:22:02.337Z,18.41
2018-11-26T01:23:02.234Z,18.41
2018-11-26T01:24:02.084Z,18.41
2018-11-26T01:25:02.226Z,18.4
2018-11-26T01:26:02.697Z,18.4
2018-11-26T01:27:02.161Z,18.39
2018-11-26T01:28:02.029Z,18.39
2018-11-26T01:29:02.068Z,18.38
2018-11-26T01:30:02.198Z,18.38
2018-11-26T01:31:02.104Z,18.36
2018-11-26T01:32:01.900Z,18.38
2018-11-26T01:33:02.075Z,18.36
2018-11-26T01:34:02.387Z,18.38
2018-11-26T01:35:02.243Z,18.36
2018-11-26T01:36:02.327Z,18.36
2018-11-26T01:37:02.077Z,18.35
2018-11-26T01:38:02.130Z,18.35
2018-11-26T01:39:01.869Z,18.35
2018-11-26T01:40:01.965Z,18.35
2018-11-26T01:41:01.801Z,18.34
2018-11-26T01:42:01.970Z,18.34
2018-11-26T01:43:01.977Z,18.34
2018-11-26T01:44:01.924Z,18.35
2018-11-26T01:45:02.093Z,18.34
2018-11-26T01:46:01.885Z,18.34
2018-11-26T01:47:02.204Z,18.34
2018-11-26T01:48:01.907Z,18.33
2018-11-26T01:49:02.437Z,18.33
2018-11-26T01:50:02.057Z,18.33
2018-11-26T01:51:01.853Z,18.32
2018-11-26T01:52:01.911Z,18.32
2018-11-26T01:53:01.887Z,18.33
2018-11-26T01:54:02.365Z,18.31
2018-11-26T01:55:01.811Z,18.32
2018-11-26T01:56:02.452Z,18.32
2018-11-26T01:57:02.035Z,18.31
2018-11-26T01:58:01.882Z,18.3
2018-11-26T01:59:02.051Z,18.3
2018-11-26T02:00:01.893Z,18.3
2018-11-26T02:01:01.880Z,18.29
2018-11-26T02:02:01.985Z,18.29
2018-11-26T02:03:01.977Z,18.28
2018-11-26T02:04:02.191Z,18.28
2018-11-26T02:05:02.145Z,18.28
2018-11-26T02:06:02.061Z,18.28
2018-11-26T02:07:02.220Z,18.28
2018-11-26T02:08:02.349Z,18.28
2018-11-26T02:09:02.228Z,18.27
2018-11-26T02:10:01.784Z,18.26
2018-11-26T02:11:02.480Z,18.26
2018-11-26T02:12:02.479Z,18.27
2018-11-26T02:13:02.536Z,18.27
2018-11-26T02:14:02.108Z,18.26
2018-11-26T02:15:02.037Z,18.25
2018-11-26T02:16:01.830Z,18.25
2018-11-26T02:17:02.332Z,18.25
2018-11-26T02:18:02.094Z,18.25
2018-11-26T02:19:01.840Z,18.25
2018-11-26T02:20:02.084Z,18.24
2018-11-26T02:21:02.267Z,18.24
2018-11-26T02:22:02.452Z,18.24
2018-11-26T02:23:01.853Z,18.23
2018-11-26T02:24:02.284Z,18.24
2018-11-26T02:25:01.923Z,18.23
2018-11-26T02:26:02.041Z,18.23
2018-11-26T02:27:02.148Z,18.23
2018-11-26T02:28:02.023Z,18.23
2018-11-26T02:29:02.095Z,18.23
2018-11-26T02:30:02.217Z,18.23
2018-11-26T02:31:02.855Z,18.21
2018-11-26T02:32:01.842Z,18.22
2018-11-26T02:33:01.965Z,18.22
2018-11-26T02:34:02.053Z,18.22
2018-11-26T02:35:02.069Z,18.22
2018-11-26T02:36:02.250Z,18.21
2018-11-26T02:37:02.270Z,18.19
2018-11-26T02:38:02.020Z,18.2
2018-11-26T02:39:02.240Z,18.2
2018-11-26T02:40:02.236Z,18.19
2018-11-26T02:41:02.371Z,18.19
2018-11-26T02:42:02.400Z,18.19
2018-11-26T02:43:02.580Z,18.19
2018-11-26T02:44:01.939Z,18.18
2018-11-26T02:45:01.984Z,18.18
2018-11-26T02:46:02.677Z,18.18
2018-11-26T02:47:02.393Z,18.17
2018-11-26T02:48:02.181Z,18.18
2018-11-26T02:49:02.256Z,18.17
2018-11-26T02:50:02.104Z,18.17
2018-11-26T02:51:02.356Z,18.17
2018-11-26T02:52:02.433Z,18.17
2018-11-26T02:53:02.284Z,18.17
2018-11-26T02:54:01.989Z,18.17
2018-11-26T02:55:02.060Z,18.17
2018-11-26T02:56:01.979Z,18.16
2018-11-26T02:57:01.882Z,18.16
2018-11-26T02:58:02.408Z,18.16
2018-11-26T02:59:02.102Z,18.16
2018-11-26T03:00:01.914Z,18.15
2018-11-26T03:01:01.984Z,18.14
2018-11-26T03:02:02.159Z,18.13
2018-11-26T03:03:02.005Z,18.13
2018-11-26T03:04:02.169Z,18.14
2018-11-26T03:05:02.043Z,18.13
2018-11-26T03:06:02.247Z,18.13
2018-11-26T03:07:02.029Z,18.13
2018-11-26T03:08:02.274Z,18.12
2018-11-26T03:09:01.852Z,18.12
2018-11-26T03:10:02.418Z,18.14
2018-11-26T03:11:01.879Z,18.12
2018-11-26T03:12:01.961Z,18.12
2018-11-26T03:13:02.125Z,18.14
2018-11-26T03:14:01.979Z,18.12
2018-11-26T03:15:02.102Z,18.11
2018-11-26T03:16:01.848Z,18.12
2018-11-26T03:17:02.101Z,18.11
2018-11-26T03:18:01.913Z,18.11
2018-11-26T03:19:02.076Z,18.11
2018-11-26T03:20:01.863Z,18.1
2018-11-26T03:21:02.081Z,18.1
2018-11-26T03:22:01.833Z,18.1
2018-11-26T03:23:01.888Z,18.1
2018-11-26T03:24:02.157Z,18.1
2018-11-26T03:25:01.856Z,18.1
2018-11-26T03:26:02.021Z,18.09
2018-11-26T03:27:01.895Z,18.09
2018-11-26T03:28:01.952Z,18.1
2018-11-26T03:29:01.919Z,18.1
2018-11-26T03:30:01.909Z,18.1
2018-11-26T03:31:01.725Z,18.1
2018-11-26T03:32:02.038Z,18.09
2018-11-26T03:33:01.960Z,18.1
2018-11-26T03:34:01.832Z,18.08
2018-11-26T03:35:02.042Z,18.09
2018-11-26T03:36:02.173Z,18.1
2018-11-26T03:37:02.234Z,18.08
2018-11-26T03:38:02.296Z,18.08
2018-11-26T03:39:01.893Z,18.07
2018-11-26T03:40:02.398Z,18.07
2018-11-26T03:41:01.792Z,18.07
2018-11-26T03:42:01.798Z,18.07
2018-11-26T03:43:01.903Z,18.07
2018-11-26T03:44:02.102Z,18.07
2018-11-26T03:45:02.095Z,18.06
2018-11-26T03:46:01.954Z,18.06
2018-11-26T03:47:02.350Z,18.06
2018-11-26T03:48:02.066Z,18.05
2018-11-26T03:49:02.154Z,18.06
2018-11-26T03:50:01.983Z,18.06
2018-11-26T03:51:01.946Z,18.04
2018-11-26T03:52:02.101Z,18.05
2018-11-26T03:53:01.840Z,18.05
2018-11-26T03:54:02.057Z,18.04
2018-11-26T03:55:02.403Z,18.04
2018-11-26T03:56:02.214Z,18.04
2018-11-26T03:57:01.895Z,18.04
2018-11-26T03:58:01.895Z,18.04
2018-11-26T03:59:02.036Z,18.04
2018-11-26T04:00:01.908Z,18.04
2018-11-26T04:01:02.057Z,18.04
2018-11-26T04:02:01.830Z,18.04
2018-11-26T04:03:02.111Z,18.04
2018-11-26T04:04:02.172Z,18.03
2018-11-26T04:05:02.067Z,18.02
2018-11-26T04:06:01.891Z,18.02
2018-11-26T04:07:02.185Z,18.03
2018-11-26T04:08:01.863Z,18.03
2018-11-26T04:09:02.046Z,18.03
2018-11-26T04:10:02.123Z,18.02
2018-11-26T04:11:01.923Z,18.01
2018-11-26T04:12:01.977Z,18.01
2018-11-26T04:13:02.161Z,18.01
2018-11-26T04:14:02.313Z,18
2018-11-26T04:15:01.901Z,18.01
2018-11-26T04:16:02.241Z,18.01
2018-11-26T04:17:02.070Z,18
2018-11-26T04:18:01.921Z,18.01
2018-11-26T04:19:02.467Z,18
2018-11-26T04:20:01.902Z,18
2018-11-26T04:21:02.082Z,17.99
2018-11-26T04:22:02.122Z,18
2018-11-26T04:23:02.196Z,18
2018-11-26T04:24:02.301Z,18
2018-11-26T04:25:01.977Z,18
2018-11-26T04:26:02.342Z,18
2018-11-26T04:27:02.146Z,18
2018-11-26T04:28:02.059Z,18
2018-11-26T04:29:01.860Z,17.98
2018-11-26T04:30:02.836Z,17.98
2018-11-26T04:31:01.944Z,17.98
2018-11-26T04:32:02.401Z,17.98
2018-11-26T04:33:02.374Z,17.98
2018-11-26T04:34:01.902Z,17.98
2018-11-26T04:35:01.972Z,17.97
2018-11-26T04:36:01.870Z,17.97
2018-11-26T04:37:02.218Z,17.97
2018-11-26T04:38:01.929Z,17.98
2018-11-26T04:39:02.141Z,17.97
2018-11-26T04:40:01.777Z,17.98
2018-11-26T04:41:01.885Z,17.98
2018-11-26T04:42:02.280Z,17.97
2018-11-26T04:43:02.132Z,17.98
2018-11-26T04:44:02.052Z,17.98
2018-11-26T04:45:01.807Z,17.99
2018-11-26T04:46:02.005Z,18
2018-11-26T04:47:02.171Z,18
2018-11-26T04:48:01.889Z,18.01
2018-11-26T04:49:01.652Z,18.02
2018-11-26T04:50:01.951Z,18.02
2018-11-26T04:51:02.087Z,18.04
2018-11-26T04:52:01.835Z,18.04
2018-11-26T04:53:01.892Z,18.05
2018-11-26T04:54:01.868Z,18.06
2018-11-26T04:55:01.965Z,18.08
2018-11-26T04:56:02.445Z,18.1
2018-11-26T04:57:01.889Z,18.1
2018-11-26T04:58:02.072Z,18.11
2018-11-26T04:59:01.912Z,18.13
2018-11-26T05:00:01.930Z,18.14
2018-11-26T05:01:01.810Z,18.15
2018-11-26T05:02:01.858Z,18.17
2018-11-26T05:03:02.147Z,18.17
2018-11-26T05:04:01.839Z,18.18
2018-11-26T05:05:01.978Z,18.2
2018-11-26T05:06:01.716Z,18.22
2018-11-26T05:07:02.191Z,18.23
2018-11-26T05:08:01.828Z,18.23
2018-11-26T05:09:01.799Z,18.27
2018-11-26T05:10:02.009Z,18.27
2018-11-26T05:11:03.141Z,18.29
2018-11-26T05:12:02.214Z,18.29
2018-11-26T05:13:02.168Z,18.31
2018-11-26T05:14:02.252Z,18.32
2018-11-26T05:15:01.825Z,18.34
2018-11-26T05:16:01.856Z,18.36
2018-11-26T05:17:02.258Z,18.36
2018-11-26T05:18:02.396Z,18.38
2018-11-26T05:19:01.948Z,18.39
2018-11-26T05:20:02.286Z,18.41
2018-11-26T05:21:02.493Z,18.41
2018-11-26T05:22:01.789Z,18.42
2018-11-26T05:23:02.035Z,18.42
2018-11-26T05:24:01.966Z,18.44
2018-11-26T05:25:02.718Z,18.46
2018-11-26T05:26:02.232Z,18.47
2018-11-26T05:27:02.261Z,18.47
2018-11-26T05:28:02.151Z,18.48
2018-11-26T05:29:02.639Z,18.49
2018-11-26T05:30:02.271Z,18.51
2018-11-26T05:31:01.813Z,18.51
2018-11-26T05:32:02.034Z,18.53
2018-11-26T05:33:02.900Z,18.53
2018-11-26T05:34:01.944Z,18.53
2018-11-26T05:35:02.201Z,18.53
2018-11-26T05:36:01.886Z,18.53
2018-11-26T05:37:01.982Z,18.53
2018-11-26T05:38:01.741Z,18.54
2018-11-26T05:39:02.758Z,18.54
2018-11-26T05:40:01.746Z,18.54
2018-11-26T05:41:02.028Z,18.54
2018-11-26T05:42:02.274Z,18.54
2018-11-26T05:43:02.127Z,18.54
2018-11-26T05:44:02.210Z,18.54
2018-11-26T05:45:01.923Z,18.54
2018-11-26T05:46:02.017Z,18.54
2018-11-26T05:47:02.662Z,18.54
2018-11-26T05:48:01.864Z,18.54
2018-11-26T05:49:01.724Z,18.54
2018-11-26T05:50:01.943Z,18.54
2018-11-26T05:51:02.056Z,18.54
2018-11-26T05:52:01.924Z,18.54
2018-11-26T05:53:02.025Z,18.54
2018-11-26T05:54:01.818Z,18.55
2018-11-26T05:55:02.198Z,18.55
2018-11-26T05:56:01.814Z,18.55
2018-11-26T05:57:02.236Z,18.55
2018-11-26T05:58:02.161Z,18.55
2018-11-26T05:59:01.808Z,18.56
2018-11-26T06:00:02.102Z,18.55
2018-11-26T06:01:01.738Z,18.56
2018-11-26T06:02:02.204Z,18.56
2018-11-26T06:03:02.291Z,18.55
2018-11-26T06:04:02.153Z,18.55
2018-11-26T06:05:02.172Z,18.55
2018-11-26T06:06:01.964Z,18.56
2018-11-26T06:07:02.149Z,18.55
2018-11-26T06:08:01.872Z,18.55
2018-11-26T06:09:01.888Z,18.55
2018-11-26T06:10:01.784Z,18.55
2018-11-26T06:11:02.237Z,18.55
2018-11-26T06:12:01.952Z,18.55
2018-11-26T06:13:03.281Z,18.55
2018-11-26T06:14:02.144Z,18.54
2018-11-26T06:15:01.851Z,18.55
2018-11-26T06:16:01.727Z,18.55
2018-11-26T06:17:02.197Z,18.54
2018-11-26T06:18:02.201Z,18.54
2018-11-26T06:19:02.216Z,18.54
2018-11-26T06:20:02.096Z,18.54
2018-11-26T06:21:02.069Z,18.54
2018-11-26T06:22:01.874Z,18.54
2018-11-26T06:23:01.900Z,18.52
2018-11-26T06:24:01.785Z,18.51
2018-11-26T06:25:01.878Z,18.5
2018-11-26T06:26:02.448Z,18.5
2018-11-26T06:27:02.558Z,18.51
2018-11-26T06:28:02.345Z,18.52
2018-11-26T06:29:02.158Z,18.52
2018-11-26T06:30:01.937Z,18.52
2018-11-26T06:31:01.879Z,18.52
2018-11-26T06:32:01.937Z,18.52
2018-11-26T06:33:01.846Z,18.53
2018-11-26T06:34:01.650Z,18.52
2018-11-26T06:35:01.782Z,18.51
2018-11-26T06:36:01.901Z,18.52
2018-11-26T06:37:01.947Z,18.51
2018-11-26T06:38:02.223Z,18.51
2018-11-26T06:39:01.900Z,18.51
2018-11-26T06:40:01.764Z,18.5
2018-11-26T06:41:01.843Z,18.5
2018-11-26T06:42:01.756Z,18.49
2018-11-26T06:43:02.140Z,18.49
2018-11-26T06:44:02.389Z,18.49
2018-11-26T06:45:01.929Z,18.49
2018-11-26T06:46:01.925Z,18.49
2018-11-26T06:47:01.920Z,18.48
2018-11-26T06:48:01.833Z,18.49
2018-11-26T06:49:02.115Z,18.48
2018-11-26T06:50:02.232Z,18.48
2018-11-26T06:51:01.800Z,18.47
2018-11-26T06:52:01.930Z,18.47
2018-11-26T06:53:02.502Z,18.47
2018-11-26T06:54:01.946Z,18.47
2018-11-26T06:55:01.995Z,18.46
2018-11-26T06:56:01.848Z,18.46
2018-11-26T06:57:01.940Z,18.46
2018-11-26T06:58:01.750Z,18.45
2018-11-26T06:59:02.182Z,18.45
2018-11-26T07:00:02.028Z,18.45
2018-11-26T07:01:02.048Z,18.45
2018-11-26T07:02:01.890Z,18.45
2018-11-26T07:03:02.686Z,18.45
2018-11-26T07:04:02.553Z,18.45
2018-11-26T07:05:01.923Z,18.44
2018-11-26T07:06:02.164Z,18.44
2018-11-26T07:07:01.739Z,18.44
2018-11-26T07:08:01.735Z,18.44
2018-11-26T07:09:02.377Z,18.44
2018-11-26T07:10:02.064Z,18.44
2018-11-26T07:11:02.426Z,18.44
2018-11-26T07:12:01.807Z,18.43
2018-11-26T07:13:02.032Z,18.43
2018-11-26T07:14:01.993Z,18.43
2018-11-26T07:15:02.306Z,18.43
2018-11-26T07:16:01.802Z,18.43
2018-11-26T07:17:02.119Z,18.43
2018-11-26T07:18:01.947Z,18.43
2018-11-26T07:19:01.763Z,18.42
2018-11-26T07:20:02.341Z,18.42
2018-11-26T07:21:02.064Z,18.42
2018-11-26T07:22:02.160Z,18.42
2018-11-26T07:23:01.692Z,18.42
2018-11-26T07:24:02.104Z,18.42
2018-11-26T07:25:02.813Z,18.41
2018-11-26T07:26:01.770Z,18.41
2018-11-26T07:27:02.182Z,18.41
2018-11-26T07:28:01.838Z,18.41
2018-11-26T07:29:01.923Z,18.41
2018-11-26T07:30:01.925Z,18.41
2018-11-26T07:31:02.119Z,18.41
2018-11-26T07:32:02.232Z,18.41
2018-11-26T07:33:02.099Z,18.41
2018-11-26T07:34:01.823Z,18.41
2018-11-26T07:35:01.676Z,18.41
2018-11-26T07:36:02.150Z,18.41
2018-11-26T07:37:02.596Z,18.41
2018-11-26T07:38:02.364Z,18.41
2018-11-26T07:39:01.836Z,18.41
2018-11-26T07:40:01.869Z,18.41
2018-11-26T07:41:02.336Z,18.41
2018-11-26T07:42:01.846Z,18.4
2018-11-26T07:43:02.348Z,18.41
2018-11-26T07:44:01.911Z,18.4
2018-11-26T07:45:01.802Z,18.41
2018-11-26T07:46:01.956Z,18.41
2018-11-26T07:47:01.845Z,18.4
2018-11-26T07:48:02.011Z,18.41
2018-11-26T07:49:01.816Z,18.4
2018-11-26T07:50:01.579Z,18.4
2018-11-26T07:51:02.920Z,18.41
2018-11-26T07:52:01.779Z,18.4
2018-11-26T07:53:01.775Z,18.4
2018-11-26T07:54:01.786Z,18.4
2018-11-26T07:55:01.891Z,18.4
2018-11-26T07:56:01.797Z,18.4
2018-11-26T07:57:01.901Z,18.4
2018-11-26T07:58:01.741Z,18.4
2018-11-26T07:59:01.746Z,18.39
2018-11-26T08:00:01.790Z,18.39
2018-11-26T08:01:01.918Z,18.39
2018-11-26T08:02:01.695Z,18.39
2018-11-26T08:03:01.771Z,18.39
2018-11-26T08:04:02.270Z,18.39
2018-11-26T08:05:01.773Z,18.39
2018-11-26T08:06:09.327Z,18.39
2018-11-26T08:07:01.983Z,18.39
2018-11-26T08:08:01.761Z,18.39
2018-11-26T08:09:01.895Z,18.39
2018-11-26T08:10:01.695Z,18.39
2018-11-26T08:11:01.901Z,18.39
2018-11-26T08:12:01.707Z,18.39
2018-11-26T08:13:01.918Z,18.39
2018-11-26T08:14:01.747Z,18.38
2018-11-26T08:15:01.852Z,18.38
2018-11-26T08:16:01.727Z,18.38
2018-11-26T08:17:02.071Z,18.38
2018-11-26T08:18:02.162Z,18.38
2018-11-26T08:19:02.282Z,18.38
2018-11-26T08:20:01.851Z,18.38
2018-11-26T08:21:01.781Z,18.38
2018-11-26T08:22:02.141Z,18.38
2018-11-26T08:23:02.047Z,18.37
2018-11-26T08:24:01.671Z,18.37
2018-11-26T08:25:02.289Z,18.38
2018-11-26T08:26:01.751Z,18.38
2018-11-26T08:27:01.973Z,18.38
2018-11-26T08:28:02.006Z,18.38
2018-11-26T08:29:01.704Z,18.38
2018-11-26T08:30:02.133Z,18.38
2018-11-26T08:31:01.907Z,18.37
2018-11-26T08:32:02.073Z,18.38
2018-11-26T08:33:02.120Z,18.39
2018-11-26T08:34:02.168Z,18.38
2018-11-26T08:35:01.726Z,18.38
2018-11-26T08:36:01.833Z,18.38
2018-11-26T08:37:01.912Z,18.38
2018-11-26T08:38:01.916Z,18.38
2018-11-26T08:39:02.079Z,18.38
2018-11-26T08:40:02.236Z,18.38
2018-11-26T08:41:01.946Z,18.38
2018-11-26T08:42:01.780Z,18.37
2018-11-26T08:43:02.248Z,18.38
2018-11-26T08:44:09.942Z,18.38
2018-11-26T08:45:01.788Z,18.38
2018-11-26T08:46:02.536Z,18.38
2018-11-26T08:47:01.720Z,18.38
2018-11-26T08:48:01.927Z,18.38
2018-11-26T08:49:01.940Z,18.37
2018-11-26T08:50:02.016Z,18.39
2018-11-26T08:51:01.986Z,18.37
2018-11-26T08:52:01.837Z,18.38
2018-11-26T08:53:01.756Z,18.38
2018-11-26T08:54:02.290Z,18.37
2018-11-26T08:55:02.949Z,18.38
2018-11-26T08:56:02.027Z,18.38
2018-11-26T08:57:02.712Z,18.38
2018-11-26T08:58:01.779Z,18.39
2018-11-26T08:59:01.886Z,18.39
2018-11-26T09:00:02.244Z,18.39
2018-11-26T09:01:01.927Z,18.39
2018-11-26T09:02:02.277Z,18.4
2018-11-26T09:03:01.846Z,18.39
2018-11-26T09:04:01.884Z,18.39
2018-11-26T09:05:01.986Z,18.39
2018-11-26T09:06:01.902Z,18.39
2018-11-26T09:07:02.056Z,18.39
2018-11-26T09:08:02.102Z,18.4
2018-11-26T09:09:01.790Z,18.4
2018-11-26T09:10:02.113Z,18.4
2018-11-26T09:11:01.746Z,18.4
2018-11-26T09:12:02.123Z,18.41
2018-11-26T09:13:02.206Z,18.4
2018-11-26T09:14:01.841Z,18.41
2018-11-26T09:15:01.844Z,18.4
2018-11-26T09:16:01.699Z,18.41
2018-11-26T09:17:02.261Z,18.41
2018-11-26T09:18:01.807Z,18.41
2018-11-26T09:19:02.296Z,18.41
2018-11-26T09:20:01.975Z,18.41
2018-11-26T09:21:02.963Z,18.41
2018-11-26T09:22:01.862Z,18.41
2018-11-26T09:23:01.755Z,18.41
2018-11-26T09:24:02.104Z,18.42
2018-11-26T09:25:01.707Z,18.41
2018-11-26T09:26:01.787Z,18.41
2018-11-26T09:27:01.717Z,18.41
2018-11-26T09:28:01.941Z,18.41
2018-11-26T09:29:01.901Z,18.4
2018-11-26T09:30:01.772Z,18.4
2018-11-26T09:31:01.953Z,18.4
2018-11-26T09:32:01.699Z,18.39
2018-11-26T09:33:01.797Z,18.4
2018-11-26T09:34:02.098Z,18.4
2018-11-26T09:35:01.869Z,18.4
2018-11-26T09:36:01.692Z,18.39
2018-11-26T09:37:01.844Z,18.39
2018-11-26T09:38:01.827Z,18.39
2018-11-26T09:39:01.778Z,18.38
2018-11-26T09:40:01.899Z,18.38
2018-11-26T09:41:01.744Z,18.38
2018-11-26T09:42:01.835Z,18.38
2018-11-26T09:43:01.949Z,18.38
2018-11-26T09:44:01.862Z,18.38
2018-11-26T09:45:01.692Z,18.38
2018-11-26T09:46:02.058Z,18.37
2018-11-26T09:47:01.831Z,18.37
2018-11-26T09:48:01.674Z,18.37
2018-11-26T09:49:01.756Z,18.36
2018-11-26T09:50:01.893Z,18.36
2018-11-26T09:51:01.816Z,18.37
2018-11-26T09:52:02.034Z,18.36
2018-11-26T09:53:01.705Z,18.36
2018-11-26T09:54:02.801Z,18.36
2018-11-26T09:55:02.229Z,18.37
2018-11-26T09:56:01.758Z,18.36
2018-11-26T09:57:02.331Z,18.37
2018-11-26T09:58:01.846Z,18.36
2018-11-26T09:59:01.889Z,18.36
2018-11-26T10:00:01.734Z,18.36
2018-11-26T10:01:01.705Z,18.36
2018-11-26T10:02:01.967Z,18.36
2018-11-26T10:03:02.200Z,18.37
2018-11-26T10:04:01.973Z,18.35
2018-11-26T10:05:01.687Z,18.35
2018-11-26T10:06:02.167Z,18.35
2018-11-26T10:07:01.645Z,18.36
2018-11-26T10:08:01.765Z,18.36
2018-11-26T10:09:01.896Z,18.35
2018-11-26T10:10:01.833Z,18.36
2018-11-26T10:11:01.913Z,18.35
2018-11-26T10:12:01.709Z,18.35
2018-11-26T10:13:02.470Z,18.35
2018-11-26T10:14:01.650Z,18.35
2018-11-26T10:15:01.701Z,18.35
2018-11-26T10:16:01.861Z,18.35
2018-11-26T10:17:01.832Z,18.35
2018-11-26T10:18:01.910Z,18.35
2018-11-26T10:19:01.644Z,18.35
2018-11-26T10:20:02.080Z,18.35
2018-11-26T10:21:01.754Z,18.35
2018-11-26T10:22:01.792Z,18.35
2018-11-26T10:23:01.968Z,18.35
2018-11-26T10:24:02.105Z,18.35
2018-11-26T10:25:06.317Z,18.35
2018-11-26T10:26:01.955Z,18.35
2018-11-26T10:27:01.845Z,18.35
2018-11-26T10:28:01.739Z,18.34
2018-11-26T10:29:02.084Z,18.35
2018-11-26T10:30:01.985Z,18.35
2018-11-26T10:31:01.779Z,18.35
2018-11-26T10:32:01.781Z,18.35
2018-11-26T10:33:01.698Z,18.35
2018-11-26T10:34:01.948Z,18.35
2018-11-26T10:35:02.008Z,18.35
2018-11-26T10:36:01.860Z,18.35
2018-11-26T10:37:01.936Z,18.35
2018-11-26T10:38:01.920Z,18.34
2018-11-26T10:39:02.148Z,18.35
2018-11-26T10:40:02.318Z,18.35
2018-11-26T10:41:02.253Z,18.34
2018-11-26T10:42:01.732Z,18.34
2018-11-26T10:43:02.157Z,18.35
2018-11-26T10:44:02.040Z,18.35
2018-11-26T10:45:02.255Z,18.35
2018-11-26T10:46:01.850Z,18.35
2018-11-26T10:47:01.852Z,18.35
2018-11-26T10:48:02.815Z,18.35
2018-11-26T10:49:02.698Z,18.35
2018-11-26T10:50:02.274Z,18.34
2018-11-26T10:51:01.936Z,18.34
2018-11-26T10:52:02.224Z,18.34
2018-11-26T10:53:01.845Z,18.34
2018-11-26T10:54:01.773Z,18.35
2018-11-26T10:55:01.740Z,18.34
2018-11-26T10:56:01.915Z,18.34
2018-11-26T10:57:01.795Z,18.34
2018-11-26T10:58:01.808Z,18.34
2018-11-26T10:59:01.864Z,18.34
2018-11-26T11:00:02.127Z,18.34
2018-11-26T11:01:01.784Z,18.34
2018-11-26T11:02:01.917Z,18.33
2018-11-26T11:03:01.737Z,18.33
2018-11-26T11:04:01.864Z,18.33
2018-11-26T11:05:01.777Z,18.33
2018-11-26T11:06:02.425Z,18.34
2018-11-26T11:07:01.694Z,18.34
2018-11-26T11:08:01.745Z,18.33
2018-11-26T11:09:01.698Z,18.33
2018-11-26T11:10:01.854Z,18.34
2018-11-26T11:11:01.814Z,18.34
2018-11-26T11:12:01.620Z,18.33
2018-11-26T11:13:01.917Z,18.34
2018-11-26T11:14:01.775Z,18.33
2018-11-26T11:15:02.024Z,18.33
2018-11-26T11:16:01.597Z,18.34
2018-11-26T11:17:01.819Z,18.34
2018-11-26T11:18:01.885Z,18.34
2018-11-26T11:19:01.677Z,18.33
2018-11-26T11:20:01.921Z,18.33
2018-11-26T11:21:01.849Z,18.34
2018-11-26T11:22:01.897Z,18.34
2018-11-26T11:23:01.755Z,18.34
2018-11-26T11:24:02.114Z,18.34
2018-11-26T11:25:01.814Z,18.34
2018-11-26T11:26:01.844Z,18.34
2018-11-26T11:27:02.148Z,18.33
2018-11-26T11:28:01.695Z,18.33
2018-11-26T11:29:01.906Z,18.33
2018-11-26T11:30:01.611Z,18.33
2018-11-26T11:31:01.752Z,18.33
2018-11-26T11:32:01.750Z,18.34
2018-11-26T11:34:01.701Z,18.33
2018-11-26T11:35:01.886Z,18.34
2018-11-26T11:36:01.822Z,18.34
2018-11-26T11:37:01.789Z,18.34
2018-11-26T11:38:02.244Z,18.34
2018-11-26T11:39:01.752Z,18.34
2018-11-26T11:40:01.911Z,18.33
2018-11-26T11:41:01.850Z,18.31
2018-11-26T11:42:02.023Z,18.32
2018-11-26T11:43:02.181Z,18.33
2018-11-26T11:44:01.927Z,18.33
2018-11-26T11:45:02.043Z,18.34
2018-11-26T11:46:01.957Z,18.34
2018-11-26T11:47:01.911Z,18.34
2018-11-26T11:48:01.577Z,18.35
2018-11-26T11:49:02.009Z,18.35
2018-11-26T11:50:01.769Z,18.35
2018-11-26T11:51:01.832Z,18.35
2018-11-26T11:52:01.816Z,18.35
2018-11-26T11:53:01.656Z,18.37
2018-11-26T11:54:01.799Z,18.38
2018-11-26T11:55:02.218Z,18.38
2018-11-26T11:56:01.934Z,18.37
2018-11-26T11:57:01.678Z,18.37
2018-11-26T11:58:02.061Z,18.37
2018-11-26T11:59:01.993Z,18.38
2018-11-26T12:00:01.943Z,18.38
2018-11-26T12:01:02.142Z,18.37
2018-11-26T12:02:02.141Z,18.37
2018-11-26T12:03:03.179Z,18.38
2018-11-26T12:04:01.752Z,18.38
2018-11-26T12:05:02.404Z,18.38
2018-11-26T12:06:01.541Z,18.38
2018-11-26T12:07:01.584Z,18.39
2018-11-26T12:08:02.138Z,18.38
2018-11-26T12:09:02.404Z,18.38
2018-11-26T12:10:02.192Z,18.38
2018-11-26T12:11:02.301Z,18.38
2018-11-26T12:12:02.058Z,18.38
2018-11-26T12:13:01.979Z,18.38
2018-11-26T12:14:01.973Z,18.38
2018-11-26T12:15:01.773Z,18.38
2018-11-26T12:16:02.013Z,18.38
2018-11-26T12:17:01.979Z,18.38
2018-11-26T12:18:01.781Z,18.38
2018-11-26T12:19:01.604Z,18.38
2018-11-26T12:20:02.070Z,18.37
2018-11-26T12:21:01.933Z,18.38
2018-11-26T12:22:01.768Z,18.37
2018-11-26T12:23:02.082Z,18.38
2018-11-26T12:24:01.818Z,18.37
2018-11-26T12:25:02.071Z,18.38
2018-11-26T12:26:01.750Z,18.37
2018-11-26T12:27:01.682Z,18.37
2018-11-26T12:28:02.545Z,18.37
2018-11-26T12:29:01.783Z,18.37
2018-11-26T12:30:02.286Z,18.37
2018-11-26T12:31:01.865Z,18.37
2018-11-26T12:32:01.918Z,18.37
2018-11-26T12:33:01.706Z,18.37
2018-11-26T12:34:01.798Z,18.36
2018-11-26T12:35:01.739Z,18.36
2018-11-26T12:36:01.948Z,18.36
2018-11-26T12:37:01.669Z,18.36
2018-11-26T12:38:01.702Z,18.36
2018-11-26T12:39:01.891Z,18.36
2018-11-26T12:40:01.695Z,18.36
2018-11-26T12:41:01.854Z,18.36
2018-11-26T12:42:04.424Z,18.35
2018-11-26T12:43:01.695Z,18.36
2018-11-26T12:44:01.858Z,18.35
2018-11-26T12:45:01.710Z,18.35
2018-11-26T12:46:01.949Z,18.35
2018-11-26T12:47:02.146Z,18.35
2018-11-26T12:48:01.797Z,18.35
2018-11-26T12:49:01.742Z,18.35
2018-11-26T12:50:01.984Z,18.35
2018-11-26T12:51:01.780Z,18.35
2018-11-26T12:52:01.847Z,18.35
2018-11-26T12:53:01.728Z,18.35
2018-11-26T12:54:01.650Z,18.35
2018-11-26T12:55:01.804Z,18.35
2018-11-26T12:56:01.697Z,18.35